Boise, ID (83732)

8:16 AM MDT on September 20, 2014 (GMT -0600)
Bridgeview Central | Change Station
CLOSE
Current Station
Personal Weather Station
Location: Boise, ID
Elevation: 2785 ft
Nearby Weather Stations

Elev 2785 ft 43.56 °N, 116.29 °W | Updated 7 minutes ago

Clear
Clear
55.0 °F
Feels Like 55.0 °F
N
2.7
Wind Variable Wind from SSW

Today
High -- | Low -- °F
--% Chance of Precip.
Yesterday
High -- | Low -- °F
Precip. -- in
7:30 AM 7:46 PM
Waning Crescent, 12% visible
Pressure 30.07 in
Visibility 10.0 miles
Clouds Clear
Dew Point 48 °F
Humidity 76%
Rainfall 0.00 in
Snow Depth 1 in , 1 in , 1 in
UV 0 out of 12
Pollen 8.20 out of 12
Ozone Good
PM2.5 Good
Flu Activity Not available.
METAR KBOI 201353Z 15007KT 10SM CLR 13/07 A3012 RMK AO2 SLP181 T01330067

More Conditions Fewer Conditions

Pressure 30.07 in
Visibility 10.0 miles
Clouds Clear
Dew Point 48 °F
Humidity 76%
Rainfall 0.00 in
Snow Depth 1 in , 1 in , 1 in
UV 0 out of 12
Pollen 8.20 out of 12
Ozone Good
PM2.5 Good
Flu Activity Not available.
METAR KBOI 201353Z 15007KT 10SM CLR 13/07 A3012 RMK AO2 SLP181 T01330067

More Conditions Fewer Conditions

10-Day Weather Forecast

Almanac

Astronomy

Sep. 20, 2014 Rise Set
Actual Time 7:30 AM MDT 7:46 PM MDT
Civil Twilight 7:01 AM MDT 8:14 PM MDT
Nautical Twilight 6:27 AM MDT 8:48 PM MDT
Astronomical Twilight 5:53 AM MDT 9:22 PM MDT
Moon 4:08 AM MDT 5:55 PM MDT
Length of Visible Light 13h 12m
Length of Day
12h 15m
Tomorrow will be 2m 58s shorter.
Waning Crescent, 12% of the Moon is Illuminated
Today
Waning Crescent
Sep 24
New
Oct 1
First Quarter
Oct 8
Full
Oct 15
Last Quarter

Today's Extremes

State Highs State Lows

Community

WunderPhotos

Upload Photos

1,754,870 photos uploaded!

Nearby

Air Quality

  Air Quality AQ Index Pollutant
Yesterday Good
PM10
Yesterday Good
OZONE
Current Good
PM2.5
Current Good
OZONE
Saturday Moderate
PM2.5
Sunday Moderate
PM2.5
Monday Moderate
PM2.5
Tuesday Moderate
PM2.5

Snow Depth

Station Depth Elevation
Galena 1 in 7440 ft
Moscow Mountain 1 in 4700 ft
Emigrant Summit 1 in 7390 ft
Trinity Mountain 1 in 7770 ft
Hidden Lake 0 in 5040 ft

Earthquake Activity

City Distance Mag. Time & Date
No recent earthquake activity has been reported nearby.
Minimum magnitude displayed is 2.5.

Coastal Water Temperatures

Place Temperature
No Stations Reporting

Nearby Weather Stations